createdAt,value
2022-08-23T00:00:13.166Z,20.80
2022-08-23T00:01:09.606Z,20.80
2022-08-23T00:02:23.233Z,20.77
2022-08-23T00:03:10.746Z,20.74
2022-08-23T00:04:09.551Z,20.72
2022-08-23T00:05:09.935Z,20.71
2022-08-23T00:06:09.561Z,20.69
2022-08-23T00:07:09.539Z,20.65
2022-08-23T00:08:09.513Z,20.66
2022-08-23T00:09:09.502Z,20.69
2022-08-23T00:10:09.486Z,20.68
2022-08-23T00:11:09.467Z,20.68
2022-08-23T00:12:09.464Z,20.65
2022-08-23T00:13:09.466Z,20.65
2022-08-23T00:14:09.466Z,20.66
2022-08-23T00:15:09.672Z,20.66
2022-08-23T00:16:09.440Z,20.64
2022-08-23T00:17:09.409Z,20.61
2022-08-23T00:18:09.414Z,20.59
2022-08-23T00:19:10.240Z,20.58
2022-08-23T00:20:09.445Z,20.54
2022-08-23T00:21:09.485Z,20.51
2022-08-23T00:22:09.396Z,20.50
2022-08-23T00:23:09.336Z,20.47
2022-08-23T00:24:09.375Z,20.43
2022-08-23T00:25:09.358Z,20.41
2022-08-23T00:26:09.325Z,20.38
2022-08-23T00:27:09.307Z,20.33
2022-08-23T00:28:14.953Z,20.30
2022-08-23T00:29:10.289Z,20.27
2022-08-23T00:30:09.257Z,20.24
2022-08-23T00:31:09.971Z,20.18
2022-08-23T00:32:10.248Z,20.15
2022-08-23T00:33:09.248Z,20.15
2022-08-23T00:34:09.219Z,20.10
2022-08-23T00:35:09.249Z,20.08
2022-08-23T00:36:09.203Z,20.06
2022-08-23T00:37:09.291Z,20.02
2022-08-23T00:38:34.367Z,19.98
2022-08-23T00:39:10.197Z,19.95
2022-08-23T00:40:09.316Z,19.91
2022-08-23T00:41:09.162Z,19.90
2022-08-23T00:42:09.156Z,19.88
2022-08-23T00:43:09.138Z,19.84
2022-08-23T00:44:09.106Z,19.83
2022-08-23T00:45:09.103Z,19.79
2022-08-23T00:46:09.083Z,19.78
2022-08-23T00:47:09.069Z,19.76
2022-08-23T00:48:09.102Z,19.76
2022-08-23T00:49:09.076Z,19.72
2022-08-23T00:50:23.374Z,19.70
2022-08-23T00:51:10.025Z,19.68
2022-08-23T00:52:09.003Z,19.63
2022-08-23T00:53:09.014Z,19.57
2022-08-23T00:54:09.005Z,19.53
2022-08-23T00:55:09.064Z,19.50
2022-08-23T00:56:09.007Z,19.46
2022-08-23T00:57:09.317Z,19.38
2022-08-23T00:58:08.948Z,19.33
2022-08-23T00:59:08.988Z,19.28
2022-08-23T01:00:08.974Z,19.24
2022-08-23T01:01:08.958Z,19.20
2022-08-23T01:02:08.926Z,19.18
2022-08-23T01:03:08.901Z,19.18
2022-08-23T01:04:08.897Z,19.13
2022-08-23T01:05:08.876Z,19.13
2022-08-23T01:06:08.888Z,19.10
2022-08-23T01:07:08.886Z,19.08
2022-08-23T01:08:08.838Z,19.08
2022-08-23T01:09:08.842Z,19.06
2022-08-23T01:10:08.797Z,19.02
2022-08-23T01:11:08.957Z,19.01
2022-08-23T01:12:08.788Z,18.95
2022-08-23T01:13:08.790Z,18.92
2022-08-23T01:14:08.849Z,18.92
2022-08-23T01:15:08.749Z,18.95
2022-08-23T01:16:08.733Z,18.97
2022-08-23T01:17:08.781Z,18.98
2022-08-23T01:18:08.774Z,18.99
2022-08-23T01:19:08.702Z,19.01
2022-08-23T01:20:10.265Z,19.02
2022-08-23T01:21:10.313Z,19.02
2022-08-23T01:22:08.661Z,19.02
2022-08-23T01:23:08.696Z,19.01
2022-08-23T01:24:08.663Z,18.99
2022-08-23T01:25:09.240Z,18.97
2022-08-23T01:26:08.729Z,18.90
2022-08-23T01:27:08.735Z,18.83
2022-08-23T01:28:08.600Z,18.79
2022-08-23T01:29:08.618Z,18.73
2022-08-23T01:30:08.584Z,18.70
2022-08-23T01:31:08.573Z,18.65
2022-08-23T01:32:08.556Z,18.59
2022-08-23T01:33:08.983Z,18.54
2022-08-23T01:34:08.525Z,18.50
2022-08-23T01:35:08.552Z,18.43
2022-08-23T01:36:09.720Z,18.37
2022-08-23T01:37:08.535Z,18.34
2022-08-23T01:38:08.503Z,18.29
2022-08-23T01:39:08.475Z,18.25
2022-08-23T01:40:08.589Z,18.19
2022-08-23T01:41:08.456Z,18.13
2022-08-23T01:42:08.426Z,18.13
2022-08-23T01:43:08.435Z,18.10
2022-08-23T01:44:08.417Z,18.07
2022-08-23T01:45:08.407Z,18.03
2022-08-23T01:46:08.407Z,18.02
2022-08-23T01:47:08.376Z,17.99
2022-08-23T01:48:08.387Z,17.95
2022-08-23T01:49:08.597Z,17.92
2022-08-23T01:50:08.356Z,17.91
2022-08-23T01:51:08.371Z,17.85
2022-08-23T01:52:08.336Z,17.82
2022-08-23T01:53:08.315Z,17.79
2022-08-23T01:54:08.297Z,17.74
2022-08-23T01:55:08.298Z,17.74
2022-08-23T01:56:08.270Z,17.74
2022-08-23T01:57:08.289Z,17.74
2022-08-23T01:58:08.260Z,17.76
2022-08-23T01:59:08.239Z,17.76
2022-08-23T02:00:08.220Z,17.79
2022-08-23T02:01:08.221Z,17.82
2022-08-23T02:02:08.284Z,17.81
2022-08-23T02:03:08.193Z,17.81
2022-08-23T02:04:08.195Z,17.82
2022-08-23T02:05:08.180Z,17.79
2022-08-23T02:06:08.162Z,17.79
2022-08-23T02:07:08.156Z,17.76
2022-08-23T02:08:08.166Z,17.73
2022-08-23T02:09:17.898Z,17.69
2022-08-23T02:10:09.144Z,17.66
2022-08-23T02:11:08.121Z,17.62
2022-08-23T02:12:08.091Z,17.55
2022-08-23T02:13:08.113Z,17.54
2022-08-23T02:14:08.076Z,17.53
2022-08-23T02:15:08.087Z,17.51
2022-08-23T02:16:08.042Z,17.48
2022-08-23T02:17:08.042Z,17.48
2022-08-23T02:18:08.024Z,17.46
2022-08-23T02:19:08.035Z,17.41
2022-08-23T02:20:08.004Z,17.38
2022-08-23T02:22:07.994Z,17.35
2022-08-23T02:23:07.976Z,17.38
2022-08-23T02:24:08.000Z,17.41
2022-08-23T02:25:07.948Z,17.43
2022-08-23T02:26:07.937Z,17.41
2022-08-23T02:27:07.934Z,17.43
2022-08-23T02:28:07.915Z,17.41
2022-08-23T02:29:07.913Z,17.40
2022-08-23T02:30:07.914Z,17.32
2022-08-23T02:31:07.891Z,17.29
2022-08-23T02:32:07.876Z,17.26
2022-08-23T02:33:07.870Z,17.22
2022-08-23T02:34:07.837Z,17.20
2022-08-23T02:35:07.932Z,17.18
2022-08-23T02:36:07.843Z,17.17
2022-08-23T02:37:07.808Z,17.17
2022-08-23T02:38:07.812Z,17.15
2022-08-23T02:39:07.799Z,17.11
2022-08-23T02:40:08.572Z,17.08
2022-08-23T02:41:08.219Z,17.07
2022-08-23T02:42:07.790Z,17.04
2022-08-23T02:43:07.842Z,16.99
2022-08-23T02:44:07.768Z,16.96
2022-08-23T02:45:07.756Z,16.92
2022-08-23T02:46:07.829Z,16.88
2022-08-23T02:47:07.737Z,16.88
2022-08-23T02:48:07.693Z,16.89
2022-08-23T02:49:07.740Z,16.88
2022-08-23T02:50:07.690Z,16.88
2022-08-23T02:51:07.672Z,16.86
2022-08-23T02:52:07.672Z,16.85
2022-08-23T02:53:07.747Z,16.80
2022-08-23T02:54:07.643Z,16.78
2022-08-23T02:55:07.645Z,16.77
2022-08-23T02:56:17.108Z,16.74
2022-08-23T02:57:08.632Z,16.73
2022-08-23T02:58:07.598Z,16.74
2022-08-23T02:59:07.582Z,16.71
2022-08-23T03:00:07.644Z,16.70
2022-08-23T03:01:07.598Z,16.67
2022-08-23T03:02:07.765Z,16.62
2022-08-23T03:03:07.727Z,16.58
2022-08-23T03:04:07.753Z,16.56
2022-08-23T03:05:07.601Z,16.50
2022-08-23T03:06:25.475Z,16.48
2022-08-23T03:07:08.584Z,16.48
2022-08-23T03:08:07.650Z,16.45
2022-08-23T03:09:07.738Z,16.44
2022-08-23T03:10:07.566Z,16.44
2022-08-23T03:11:08.103Z,16.45
2022-08-23T03:12:07.599Z,16.49
2022-08-23T03:13:07.455Z,16.50
2022-08-23T03:14:07.467Z,16.52
2022-08-23T03:15:07.667Z,16.50
2022-08-23T03:16:07.566Z,16.50
2022-08-23T03:17:07.517Z,16.48
2022-08-23T03:18:07.588Z,16.45
2022-08-23T03:19:07.543Z,16.42
2022-08-23T03:20:07.506Z,16.40
2022-08-23T03:21:07.449Z,16.37
2022-08-23T03:22:07.527Z,16.30
2022-08-23T03:23:07.504Z,16.26
2022-08-23T03:24:10.383Z,16.22
2022-08-23T03:25:07.564Z,16.16
2022-08-23T03:26:07.351Z,16.14
2022-08-23T03:27:07.414Z,16.14
2022-08-23T03:28:07.390Z,16.12
2022-08-23T03:29:07.396Z,16.11
2022-08-23T03:30:11.431Z,16.07
2022-08-23T03:31:08.414Z,16.07
2022-08-23T03:32:07.546Z,16.03
2022-08-23T03:33:07.584Z,16.00
2022-08-23T03:34:07.255Z,15.96
2022-08-23T03:35:14.364Z,15.93
2022-08-23T03:37:28.632Z,15.93
2022-08-23T03:38:28.503Z,15.92
2022-08-23T03:39:28.556Z,15.89
2022-08-23T03:40:28.635Z,15.89
2022-08-23T03:41:28.598Z,15.88
2022-08-23T03:42:31.205Z,15.88
2022-08-23T03:43:28.523Z,15.88
2022-08-23T03:44:28.465Z,15.82
2022-08-23T03:45:28.534Z,15.79
2022-08-23T03:46:33.330Z,15.79
2022-08-23T03:47:29.502Z,15.76
2022-08-23T03:48:28.434Z,15.76
2022-08-23T03:49:28.484Z,15.78
2022-08-23T03:50:28.406Z,15.74
2022-08-23T03:51:28.504Z,15.74
2022-08-23T03:52:28.554Z,15.74
2022-08-23T03:53:28.565Z,15.72
2022-08-23T03:54:28.458Z,15.72
2022-08-23T03:55:28.464Z,15.70
2022-08-23T03:56:28.426Z,15.68
2022-08-23T03:57:28.377Z,15.68
2022-08-23T03:58:28.369Z,15.68
2022-08-23T03:59:28.358Z,15.68
2022-08-23T04:00:28.375Z,15.66
2022-08-23T04:01:28.939Z,15.63
2022-08-23T04:02:28.258Z,15.57
2022-08-23T04:03:28.279Z,15.51
2022-08-23T04:04:28.228Z,15.48
2022-08-23T04:05:28.209Z,15.45
2022-08-23T04:06:28.197Z,15.45
2022-08-23T04:07:28.199Z,15.43
2022-08-23T04:08:33.234Z,15.43
2022-08-23T04:09:29.170Z,15.45
2022-08-23T04:10:28.139Z,15.42
2022-08-23T04:11:28.121Z,15.41
2022-08-23T04:12:28.120Z,15.36
2022-08-23T04:13:28.129Z,15.38
2022-08-23T04:14:28.093Z,15.39
2022-08-23T04:15:28.080Z,15.39
2022-08-23T04:16:28.073Z,15.41
2022-08-23T04:17:32.076Z,15.39
2022-08-23T04:18:28.100Z,15.38
2022-08-23T04:19:28.062Z,15.41
2022-08-23T04:20:28.029Z,15.43
2022-08-23T04:21:28.001Z,15.45
2022-08-23T04:22:27.990Z,15.42
2022-08-23T04:23:28.035Z,15.43
2022-08-23T04:24:27.992Z,15.38
2022-08-23T04:25:33.606Z,15.35
2022-08-23T04:26:30.336Z,15.35
2022-08-23T04:27:27.932Z,15.35
2022-08-23T04:28:27.931Z,15.38
2022-08-23T04:29:34.199Z,15.39
2022-08-23T04:30:28.929Z,15.41
2022-08-23T04:31:27.897Z,15.42
2022-08-23T04:32:28.903Z,15.42
2022-08-23T04:33:27.881Z,15.42
2022-08-23T04:34:28.801Z,15.42
2022-08-23T04:35:27.874Z,15.45
2022-08-23T04:36:27.824Z,15.43
2022-08-23T04:37:28.814Z,15.45
2022-08-23T04:38:27.824Z,15.43
2022-08-23T04:39:27.816Z,15.43
2022-08-23T04:40:27.805Z,15.39
2022-08-23T04:41:27.797Z,15.39
2022-08-23T04:42:27.805Z,15.36
2022-08-23T04:43:27.761Z,15.35
2022-08-23T04:44:27.765Z,15.35
2022-08-23T04:45:27.741Z,15.33
2022-08-23T04:46:27.757Z,15.33
2022-08-23T04:47:27.756Z,15.33
2022-08-23T04:48:27.697Z,15.35
2022-08-23T04:49:27.685Z,15.35
2022-08-23T04:50:27.687Z,15.35
2022-08-23T04:51:27.668Z,15.35
2022-08-23T04:52:27.705Z,15.35
2022-08-23T04:53:27.668Z,15.38
2022-08-23T04:54:27.642Z,15.39
2022-08-23T04:55:27.619Z,15.41
2022-08-23T04:56:27.630Z,15.43
2022-08-23T04:57:27.618Z,15.46
2022-08-23T04:58:27.619Z,15.49
2022-08-23T04:59:27.569Z,15.48
2022-08-23T05:00:27.861Z,15.46
2022-08-23T05:01:27.600Z,15.46
2022-08-23T05:02:27.555Z,15.48
2022-08-23T05:03:27.556Z,15.46
2022-08-23T05:04:27.540Z,15.46
2022-08-23T05:05:27.508Z,15.49
2022-08-23T05:06:27.474Z,15.49
2022-08-23T05:07:41.602Z,15.48
2022-08-23T05:08:28.469Z,15.48
2022-08-23T05:09:27.478Z,15.49
2022-08-23T05:10:27.482Z,15.49
2022-08-23T05:11:27.430Z,15.48
2022-08-23T05:12:28.342Z,15.48
2022-08-23T05:13:27.403Z,15.49
2022-08-23T05:14:27.408Z,15.51
2022-08-23T05:15:27.388Z,15.51
2022-08-23T05:16:27.391Z,15.52
2022-08-23T05:17:27.366Z,15.54
2022-08-23T05:18:27.342Z,15.57
2022-08-23T05:19:27.319Z,15.60
2022-08-23T05:20:27.323Z,15.61
2022-08-23T05:21:27.318Z,15.64
2022-08-23T05:22:27.292Z,15.64
2022-08-23T05:23:32.192Z,15.64
2022-08-23T05:24:28.264Z,15.64
2022-08-23T05:25:27.247Z,15.66
2022-08-23T05:26:27.303Z,15.68
2022-08-23T05:27:27.255Z,15.70
2022-08-23T05:28:27.223Z,15.70
2022-08-23T05:29:27.203Z,15.75
2022-08-23T05:30:27.195Z,15.76
2022-08-23T05:31:27.177Z,15.78
2022-08-23T05:32:30.389Z,15.81
2022-08-23T05:33:28.204Z,15.82
2022-08-23T05:34:27.146Z,15.81
2022-08-23T05:35:27.129Z,15.84
2022-08-23T05:36:27.128Z,15.85
2022-08-23T05:37:27.096Z,15.89
2022-08-23T05:38:27.092Z,15.92
2022-08-23T05:39:36.299Z,15.94
2022-08-23T05:40:28.059Z,15.94
2022-08-23T05:41:38.057Z,15.96
2022-08-23T05:42:28.042Z,16.00
2022-08-23T05:43:27.032Z,16.03
2022-08-23T05:44:27.040Z,16.06
2022-08-23T05:45:27.008Z,16.11
2022-08-23T05:46:28.501Z,16.14
2022-08-23T05:47:26.998Z,16.20
2022-08-23T05:48:26.977Z,16.25
2022-08-23T05:49:26.981Z,16.31
2022-08-23T05:50:26.970Z,16.37
2022-08-23T05:51:26.932Z,16.42
2022-08-23T05:52:26.910Z,16.53
2022-08-23T05:53:27.704Z,16.58
2022-08-23T05:54:26.931Z,16.63
2022-08-23T05:55:34.613Z,16.68
2022-08-23T05:56:28.476Z,16.68
2022-08-23T05:57:26.884Z,16.70
2022-08-23T05:58:27.736Z,16.71
2022-08-23T05:59:27.582Z,16.77
2022-08-23T06:00:38.112Z,16.83
2022-08-23T06:01:27.934Z,16.88
2022-08-23T06:02:26.828Z,16.92
2022-08-23T06:03:27.423Z,17.00
2022-08-23T06:04:26.953Z,17.08
2022-08-23T06:05:26.766Z,17.15
2022-08-23T06:06:35.033Z,17.23
2022-08-23T06:07:27.772Z,17.28
2022-08-23T06:08:26.773Z,17.32
2022-08-23T06:09:26.925Z,17.33
2022-08-23T06:10:28.494Z,17.40
2022-08-23T06:11:26.758Z,17.50
2022-08-23T06:12:26.753Z,17.62
2022-08-23T06:13:26.714Z,17.71
2022-08-23T06:14:26.775Z,17.81
2022-08-23T06:15:26.667Z,17.88
2022-08-23T06:16:26.646Z,17.94
2022-08-23T06:17:26.635Z,17.99
2022-08-23T06:18:26.638Z,18.06
2022-08-23T06:19:26.657Z,18.13
2022-08-23T06:20:26.670Z,18.24
2022-08-23T06:21:26.597Z,18.36
2022-08-23T06:22:26.572Z,18.44
2022-08-23T06:23:26.579Z,18.55
2022-08-23T06:24:26.565Z,18.62
2022-08-23T06:25:26.567Z,18.76
2022-08-23T06:26:28.495Z,18.83
2022-08-23T06:27:27.427Z,18.97
2022-08-23T06:28:28.193Z,19.08
2022-08-23T06:29:26.797Z,19.10
2022-08-23T06:30:26.551Z,19.17
2022-08-23T06:31:26.601Z,19.29
2022-08-23T06:32:26.546Z,19.42
2022-08-23T06:33:26.620Z,19.53
2022-08-23T06:34:26.630Z,19.65
2022-08-23T06:35:37.877Z,19.73
2022-08-23T06:36:27.485Z,19.84
2022-08-23T06:37:26.454Z,19.94
2022-08-23T06:38:26.428Z,20.05
2022-08-23T06:39:26.434Z,20.18
2022-08-23T06:40:27.336Z,20.30
2022-08-23T06:41:26.745Z,20.39
2022-08-23T06:42:38.290Z,20.47
2022-08-23T06:43:27.355Z,20.50
2022-08-23T06:44:26.334Z,20.50
2022-08-23T06:45:33.806Z,20.49
2022-08-23T06:46:29.275Z,20.43
2022-08-23T06:47:27.063Z,20.43
2022-08-23T06:48:26.398Z,20.49
2022-08-23T06:49:26.438Z,20.59
2022-08-23T06:50:26.365Z,20.64
2022-08-23T06:51:27.860Z,20.69
2022-08-23T06:52:27.552Z,20.80
2022-08-23T06:53:26.299Z,20.86
2022-08-23T06:54:26.517Z,20.95
2022-08-23T06:55:26.184Z,20.99
2022-08-23T06:56:26.354Z,21.09
2022-08-23T06:57:26.155Z,21.23
2022-08-23T06:58:26.479Z,21.39
2022-08-23T06:59:26.219Z,21.51
2022-08-23T07:00:26.279Z,21.60
2022-08-23T07:01:44.805Z,21.74
2022-08-23T07:02:27.249Z,21.76
2022-08-23T07:03:26.137Z,21.72
2022-08-23T07:04:26.098Z,21.74
2022-08-23T07:05:26.288Z,21.90
2022-08-23T07:06:26.126Z,22.06
2022-08-23T07:07:39.756Z,22.19
2022-08-23T07:08:27.057Z,22.35
2022-08-23T07:09:26.038Z,22.44
2022-08-23T07:10:26.567Z,22.52
2022-08-23T07:11:26.454Z,22.54
2022-08-23T07:12:26.050Z,22.56
2022-08-23T07:13:25.987Z,22.60
2022-08-23T07:14:26.011Z,22.68
2022-08-23T07:15:25.961Z,22.74
2022-08-23T07:16:26.066Z,22.82
2022-08-23T07:17:25.972Z,22.96
2022-08-23T07:18:26.024Z,22.97
2022-08-23T07:19:29.077Z,22.96
2022-08-23T07:20:25.903Z,23.02
2022-08-23T07:21:25.892Z,22.97
2022-08-23T07:22:25.971Z,23.02
2022-08-23T07:23:25.872Z,23.04
2022-08-23T07:24:30.633Z,23.12
2022-08-23T07:25:26.912Z,23.17
2022-08-23T07:26:25.834Z,23.27
2022-08-23T07:27:25.888Z,23.39
2022-08-23T07:28:25.824Z,23.46
2022-08-23T07:29:25.804Z,23.43
2022-08-23T07:30:25.816Z,23.39
2022-08-23T07:31:25.817Z,23.45
2022-08-23T07:32:25.794Z,23.55
2022-08-23T07:33:25.795Z,23.58
2022-08-23T07:34:25.758Z,23.64
2022-08-23T07:35:25.761Z,23.71
2022-08-23T07:36:25.739Z,23.75
2022-08-23T07:37:25.706Z,23.60
2022-08-23T07:38:30.635Z,23.62
2022-08-23T07:39:26.716Z,23.79
2022-08-23T07:40:27.651Z,23.95
2022-08-23T07:41:25.650Z,24.08
2022-08-23T07:42:25.648Z,24.20
2022-08-23T07:43:25.627Z,24.16
2022-08-23T07:44:27.131Z,24.14
2022-08-23T07:45:25.648Z,24.29
2022-08-23T07:46:25.633Z,24.41
2022-08-23T07:47:25.586Z,24.45
2022-08-23T07:48:43.571Z,24.34
2022-08-23T07:49:29.133Z,24.20
2022-08-23T07:50:25.560Z,24.05
2022-08-23T07:51:26.579Z,24.14
2022-08-23T07:52:25.561Z,24.31
2022-08-23T07:53:31.836Z,24.37
2022-08-23T07:54:26.514Z,24.41
2022-08-23T07:55:25.539Z,24.44
2022-08-23T07:56:25.495Z,24.53
2022-08-23T07:57:25.482Z,24.57
2022-08-23T07:58:25.475Z,24.60
2022-08-23T07:59:25.466Z,24.54
2022-08-23T08:00:25.442Z,24.47
2022-08-23T08:01:25.508Z,24.39
2022-08-23T08:02:25.467Z,24.32
2022-08-23T08:03:25.393Z,24.24
2022-08-23T08:04:25.415Z,24.07
2022-08-23T08:05:25.409Z,24.07
2022-08-23T08:06:25.427Z,24.04
2022-08-23T08:07:25.358Z,24.05
2022-08-23T08:08:25.367Z,24.10
2022-08-23T08:09:25.336Z,24.12
2022-08-23T08:10:25.356Z,24.14
2022-08-23T08:11:25.319Z,24.20
2022-08-23T08:12:25.348Z,24.16
2022-08-23T08:13:25.297Z,24.19
2022-08-23T08:14:25.276Z,24.29
2022-08-23T08:15:25.266Z,24.32
2022-08-23T08:16:25.306Z,24.24
2022-08-23T08:17:27.506Z,24.22
2022-08-23T08:18:25.306Z,24.32
2022-08-23T08:19:25.219Z,24.35
2022-08-23T08:20:25.228Z,24.39
2022-08-23T08:21:25.211Z,24.45
2022-08-23T08:22:25.199Z,24.47
2022-08-23T08:23:25.211Z,24.49
2022-08-23T08:24:25.162Z,24.19
2022-08-23T08:25:25.149Z,24.20
2022-08-23T08:26:25.129Z,24.29
2022-08-23T08:27:25.129Z,24.29
2022-08-23T08:28:25.121Z,24.00
2022-08-23T08:29:25.148Z,23.87
2022-08-23T08:30:26.221Z,23.79
2022-08-23T08:31:25.092Z,23.82
2022-08-23T08:32:25.092Z,23.92
2022-08-23T08:33:25.066Z,24.05
2022-08-23T08:34:26.085Z,24.13
2022-08-23T08:35:25.084Z,24.12
2022-08-23T08:36:25.054Z,24.02
2022-08-23T08:37:25.035Z,24.04
2022-08-23T08:38:25.017Z,24.08
2022-08-23T08:39:25.025Z,24.22
2022-08-23T08:40:25.016Z,24.47
2022-08-23T08:41:24.975Z,24.59
2022-08-23T08:42:24.971Z,24.73
2022-08-23T08:43:24.948Z,24.91
2022-08-23T08:44:24.940Z,25.06
2022-08-23T08:45:26.287Z,25.27
2022-08-23T08:46:25.987Z,25.38
2022-08-23T08:47:24.906Z,25.35
2022-08-23T08:48:24.906Z,25.38
2022-08-23T08:49:24.888Z,25.54
2022-08-23T08:50:24.868Z,25.61
2022-08-23T08:51:24.888Z,25.57
2022-08-23T08:52:24.866Z,25.57
2022-08-23T08:53:24.839Z,25.72
2022-08-23T08:54:24.837Z,25.84
2022-08-23T08:55:24.841Z,25.94
2022-08-23T08:56:24.826Z,25.93
2022-08-23T08:57:27.669Z,25.99
2022-08-23T08:58:24.767Z,25.98
2022-08-23T08:59:25.710Z,26.01
2022-08-23T09:00:24.742Z,25.94
2022-08-23T09:01:24.824Z,25.91
2022-08-23T09:02:32.593Z,25.91
2022-08-23T09:03:25.846Z,25.62
2022-08-23T09:04:24.701Z,25.47
2022-08-23T09:05:24.691Z,25.57
2022-08-23T09:06:24.685Z,25.72
2022-08-23T09:07:26.894Z,25.83
2022-08-23T09:08:25.714Z,25.89
2022-08-23T09:09:24.642Z,25.94
2022-08-23T09:10:25.505Z,26.05
2022-08-23T09:11:24.626Z,26.05
2022-08-23T09:12:24.618Z,26.09
2022-08-23T09:13:24.615Z,26.29
2022-08-23T09:14:24.615Z,26.42
2022-08-23T09:15:24.576Z,26.50
2022-08-23T09:16:24.564Z,26.50
2022-08-23T09:17:24.573Z,26.57
2022-08-23T09:18:24.561Z,26.57
2022-08-23T09:19:25.094Z,26.72
2022-08-23T09:20:24.519Z,26.83
2022-08-23T09:21:24.506Z,26.94
2022-08-23T09:22:24.498Z,26.94
2022-08-23T09:23:24.517Z,27.05
2022-08-23T09:24:24.480Z,27.05
2022-08-23T09:25:24.518Z,27.05
2022-08-23T09:26:24.452Z,27.10
2022-08-23T09:27:24.449Z,26.94
2022-08-23T09:28:24.461Z,26.86
2022-08-23T09:29:24.418Z,26.92
2022-08-23T09:30:24.404Z,27.01
2022-08-23T09:31:24.460Z,26.99
2022-08-23T09:32:24.391Z,27.06
2022-08-23T09:33:26.350Z,27.06
2022-08-23T09:34:24.384Z,27.06
2022-08-23T09:35:24.342Z,27.06
2022-08-23T09:36:24.392Z,27.20
2022-08-23T09:37:24.353Z,27.33
2022-08-23T09:38:24.390Z,27.47
2022-08-23T09:39:24.343Z,27.57
2022-08-23T09:40:25.327Z,27.79
2022-08-23T09:41:24.345Z,27.92
2022-08-23T09:42:24.318Z,27.98
2022-08-23T09:43:24.280Z,27.99
2022-08-23T09:44:24.335Z,27.88
2022-08-23T09:45:24.292Z,27.59
2022-08-23T09:46:24.355Z,27.26
2022-08-23T09:47:24.303Z,27.16
2022-08-23T09:48:28.124Z,27.04
2022-08-23T09:49:25.310Z,27.20
2022-08-23T09:50:24.292Z,27.46
2022-08-23T09:51:24.196Z,27.70
2022-08-23T09:52:24.159Z,27.82
2022-08-23T09:53:24.148Z,27.85
2022-08-23T09:54:24.169Z,27.98
2022-08-23T09:55:24.120Z,28.07
2022-08-23T09:56:24.136Z,28.11
2022-08-23T09:57:24.100Z,28.23
2022-08-23T09:58:24.097Z,28.36
2022-08-23T09:59:26.947Z,28.53
2022-08-23T10:00:24.060Z,28.50
2022-08-23T10:01:24.114Z,28.32
2022-08-23T10:02:24.073Z,28.36
2022-08-23T10:03:25.195Z,28.50
2022-08-23T10:04:24.071Z,28.65
2022-08-23T10:05:24.031Z,28.66
2022-08-23T10:06:24.022Z,28.59
2022-08-23T10:07:25.003Z,28.68
2022-08-23T10:08:24.003Z,28.77
2022-08-23T10:09:23.973Z,28.88
2022-08-23T10:10:23.963Z,28.53
2022-08-23T10:11:24.002Z,28.51
2022-08-23T10:12:23.943Z,28.40
2022-08-23T10:13:23.935Z,28.33
2022-08-23T10:14:24.388Z,28.53
2022-08-23T10:15:25.043Z,28.68
2022-08-23T10:16:24.004Z,28.78
2022-08-23T10:17:23.909Z,28.80
2022-08-23T10:18:23.920Z,28.91
2022-08-23T10:19:23.877Z,28.95
2022-08-23T10:20:23.881Z,28.96
2022-08-23T10:21:24.124Z,29.00
2022-08-23T10:22:23.847Z,29.16
2022-08-23T10:23:23.842Z,29.25
2022-08-23T10:24:24.140Z,29.29
2022-08-23T10:25:23.815Z,29.35
2022-08-23T10:26:23.767Z,29.38
2022-08-23T10:27:23.774Z,29.33
2022-08-23T10:28:23.788Z,29.37
2022-08-23T10:29:23.762Z,29.43
2022-08-23T10:30:23.768Z,29.50
2022-08-23T10:31:23.741Z,29.44
2022-08-23T10:32:23.736Z,29.35
2022-08-23T10:33:23.690Z,29.16
2022-08-23T10:34:23.714Z,29.34
2022-08-23T10:35:23.681Z,29.45
2022-08-23T10:36:23.677Z,29.38
2022-08-23T10:37:23.709Z,29.28
2022-08-23T10:38:23.653Z,29.28
2022-08-23T10:39:23.700Z,29.31
2022-08-23T10:40:23.679Z,29.28
2022-08-23T10:41:23.612Z,29.31
2022-08-23T10:42:23.605Z,29.31
2022-08-23T10:43:23.594Z,29.38
2022-08-23T10:44:23.623Z,29.38
2022-08-23T10:45:23.618Z,29.55
2022-08-23T10:46:23.578Z,29.65
2022-08-23T10:47:23.523Z,29.53
2022-08-23T10:48:23.522Z,29.38
2022-08-23T10:49:23.508Z,29.29
2022-08-23T10:50:23.502Z,29.37
2022-08-23T10:51:31.657Z,29.40
2022-08-23T10:52:24.469Z,29.38
2022-08-23T10:53:23.486Z,29.44
2022-08-23T10:54:23.458Z,29.59
2022-08-23T10:55:23.483Z,29.68
2022-08-23T10:56:23.419Z,29.63
2022-08-23T10:57:23.490Z,29.56
2022-08-23T10:58:23.429Z,29.56
2022-08-23T10:59:23.409Z,29.65
2022-08-23T11:00:23.399Z,29.81
2022-08-23T11:01:23.410Z,29.99
2022-08-23T11:02:23.452Z,30.16
2022-08-23T11:03:26.886Z,30.14
2022-08-23T11:04:25.230Z,30.29
2022-08-23T11:05:23.320Z,30.34
2022-08-23T11:06:23.311Z,30.40
2022-08-23T11:07:23.338Z,30.36
2022-08-23T11:08:23.364Z,30.36
2022-08-23T11:09:25.899Z,30.24
2022-08-23T11:10:23.293Z,30.14
2022-08-23T11:11:23.265Z,30.12
2022-08-23T11:12:23.235Z,30.16
2022-08-23T11:13:23.334Z,30.27
2022-08-23T11:14:23.249Z,30.27
2022-08-23T11:15:23.235Z,30.27
2022-08-23T11:16:23.212Z,30.49
2022-08-23T11:17:23.203Z,30.65
2022-08-23T11:18:23.185Z,30.84
2022-08-23T11:19:23.205Z,31.02
2022-08-23T11:20:23.156Z,31.06
2022-08-23T11:21:23.152Z,30.93
2022-08-23T11:22:23.127Z,30.62
2022-08-23T11:23:23.133Z,29.97
2022-08-23T11:24:23.127Z,29.89
2022-08-23T11:25:23.114Z,29.96
2022-08-23T11:26:23.099Z,30.18
2022-08-23T11:27:23.072Z,30.18
2022-08-23T11:28:23.059Z,30.03
2022-08-23T11:29:23.053Z,30.00
2022-08-23T11:30:23.103Z,30.23
2022-08-23T11:31:23.127Z,30.43
2022-08-23T11:32:25.869Z,30.56
2022-08-23T11:33:24.000Z,30.64
2022-08-23T11:34:23.120Z,30.54
2022-08-23T11:35:24.009Z,30.47
2022-08-23T11:36:22.980Z,30.40
2022-08-23T11:37:23.433Z,30.26
2022-08-23T11:38:22.979Z,30.29
2022-08-23T11:39:25.379Z,30.37
2022-08-23T11:40:22.971Z,30.53
2022-08-23T11:41:22.956Z,30.59
2022-08-23T11:42:22.904Z,30.71
2022-08-23T11:43:22.914Z,30.62
2022-08-23T11:44:22.886Z,30.65
2022-08-23T11:45:22.868Z,30.59
2022-08-23T11:46:22.893Z,30.50
2022-08-23T11:47:22.884Z,30.37
2022-08-23T11:48:22.856Z,30.50
2022-08-23T11:49:22.839Z,30.65
2022-08-23T11:50:22.812Z,30.89
2022-08-23T11:51:22.818Z,31.02
2022-08-23T11:52:22.800Z,30.83
2022-08-23T11:53:22.981Z,30.89
2022-08-23T11:54:22.785Z,30.83
2022-08-23T11:55:22.757Z,30.87
2022-08-23T11:56:22.749Z,30.74
2022-08-23T11:57:22.730Z,30.80
2022-08-23T11:58:22.757Z,31.04
2022-08-23T11:59:22.719Z,31.02
2022-08-23T12:00:28.982Z,31.08
2022-08-23T12:01:23.723Z,31.30
2022-08-23T12:02:22.748Z,31.50
2022-08-23T12:03:22.772Z,31.18
2022-08-23T12:04:22.684Z,31.05
2022-08-23T12:05:22.655Z,31.01
2022-08-23T12:06:22.648Z,31.15
2022-08-23T12:07:22.666Z,31.11
2022-08-23T12:08:22.613Z,30.91
2022-08-23T12:09:22.601Z,30.74
2022-08-23T12:10:22.646Z,30.33
2022-08-23T12:11:22.594Z,30.45
2022-08-23T12:12:22.572Z,30.71
2022-08-23T12:13:22.576Z,30.99
2022-08-23T12:14:22.542Z,31.28
2022-08-23T12:15:22.626Z,31.40
2022-08-23T12:16:22.569Z,31.28
2022-08-23T12:17:22.515Z,31.39
2022-08-23T12:18:25.253Z,31.31
2022-08-23T12:19:22.542Z,31.33
2022-08-23T12:20:22.537Z,31.28
2022-08-23T12:21:22.503Z,31.26
2022-08-23T12:22:22.446Z,31.33
2022-08-23T12:23:22.460Z,31.43
2022-08-23T12:24:22.435Z,31.42
2022-08-23T12:25:22.419Z,31.58
2022-08-23T12:26:22.408Z,31.73
2022-08-23T12:27:22.428Z,31.84
2022-08-23T12:28:22.411Z,31.92
2022-08-23T12:29:22.380Z,31.93
2022-08-23T12:30:22.401Z,31.99
2022-08-23T12:31:22.399Z,32.05
2022-08-23T12:32:22.382Z,32.11
2022-08-23T12:33:22.351Z,32.14
2022-08-23T12:34:22.393Z,32.21
2022-08-23T12:35:22.311Z,32.22
2022-08-23T12:36:22.306Z,32.25
2022-08-23T12:37:22.301Z,32.15
2022-08-23T12:38:22.366Z,31.98
2022-08-23T12:39:22.262Z,31.85
2022-08-23T12:40:22.309Z,31.68
2022-08-23T12:41:22.244Z,31.76
2022-08-23T12:42:22.235Z,31.95
2022-08-23T12:43:22.558Z,31.92
2022-08-23T12:44:22.247Z,31.93
2022-08-23T12:45:22.196Z,32.02
2022-08-23T12:46:22.229Z,32.18
2022-08-23T12:47:22.186Z,32.14
2022-08-23T12:48:22.175Z,32.14
2022-08-23T12:49:22.157Z,32.20
2022-08-23T12:50:22.185Z,32.13
2022-08-23T12:51:23.136Z,32.06
2022-08-23T12:52:22.196Z,32.10
2022-08-23T12:53:22.124Z,32.10
2022-08-23T12:54:22.479Z,31.96